sensor_id;sensor_type;location;lat;lon;timestamp;P1;durP1;ratioP1;P2;durP2;ratioP2
63095;SDS011;49184;55.596;37.770;2022-07-29T06:38:21;8.88;;;2.85;;
63095;SDS011;49184;55.596;37.770;2022-07-29T06:41:08;11.32;;;3.20;;
63095;SDS011;49184;55.596;37.770;2022-07-29T06:43:42;8.57;;;2.67;;
63095;SDS011;49184;55.596;37.770;2022-07-29T06:46:14;16.23;;;3.35;;
63095;SDS011;49184;55.596;37.770;2022-07-29T06:49:30;14.40;;;4.00;;
63095;SDS011;49184;55.596;37.770;2022-07-29T06:51:58;18.33;;;6.28;;
63095;SDS011;49184;55.596;37.770;2022-07-29T06:54:24;12.98;;;2.92;;
63095;SDS011;49184;55.596;37.770;2022-07-29T06:57:04;18.80;;;3.90;;
63095;SDS011;49184;55.596;37.770;2022-07-29T06:59:40;28.30;;;4.40;;
63095;SDS011;49184;55.596;37.770;2022-07-29T07:02:15;27.92;;;4.43;;
63095;SDS011;49184;55.596;37.770;2022-07-29T07:04:44;6.15;;;2.50;;
63095;SDS011;49184;55.596;37.770;2022-07-29T07:07:12;9.93;;;3.08;;
63095;SDS011;49184;55.596;37.770;2022-07-29T07:09:38;43.10;;;4.35;;
63095;SDS011;49184;55.596;37.770;2022-07-29T07:12:07;35.38;;;4.75;;
63095;SDS011;49184;55.596;37.770;2022-07-29T07:14:33;39.10;;;4.68;;
63095;SDS011;49184;55.596;37.770;2022-07-29T07:16:59;94.88;;;8.57;;
63095;SDS011;49184;55.596;37.770;2022-07-29T07:26:04;11.15;;;2.53;;
63095;SDS011;49184;55.596;37.770;2022-07-29T07:28:45;13.63;;;2.53;;
63095;SDS011;49184;55.596;37.770;2022-07-29T07:31:12;43.03;;;13.10;;
63095;SDS011;49184;55.596;37.770;2022-07-29T07:33:44;27.73;;;10.32;;
63095;SDS011;49184;55.596;37.770;2022-07-29T07:53:42;14.82;;;4.20;;
63095;SDS011;49184;55.596;37.770;2022-07-29T07:56:10;9.63;;;3.78;;
63095;SDS011;49184;55.596;37.770;2022-07-29T08:02:20;17.83;;;3.03;;
63095;SDS011;49184;55.596;37.770;2022-07-29T08:04:59;25.50;;;4.82;;
63095;SDS011;49184;55.596;37.770;2022-07-29T08:07:55;11.02;;;3.40;;
63095;SDS011;49184;55.596;37.770;2022-07-29T08:10:41;7.10;;;2.60;;
63095;SDS011;49184;55.596;37.770;2022-07-29T08:25:20;10.45;;;2.88;;
63095;SDS011;49184;55.596;37.770;2022-07-29T08:37:37;26.35;;;4.82;;
63095;SDS011;49184;55.596;37.770;2022-07-29T08:40:06;20.90;;;3.72;;
63095;SDS011;49184;55.596;37.770;2022-07-29T08:52:37;13.00;;;3.85;;
63095;SDS011;49184;55.596;37.770;2022-07-29T08:55:14;9.57;;;2.92;;
63095;SDS011;49184;55.596;37.770;2022-07-29T09:17:38;14.35;;;3.33;;
63095;SDS011;49184;55.596;37.770;2022-07-29T09:36:22;7.85;;;2.00;;
63095;SDS011;49184;55.596;37.770;2022-07-29T09:41:51;6.90;;;2.08;;
63095;SDS011;49184;55.596;37.770;2022-07-29T09:44:48;11.20;;;2.42;;
63095;SDS011;49184;55.596;37.770;2022-07-29T09:50:34;11.63;;;2.03;;
63095;SDS011;49184;55.596;37.770;2022-07-29T09:56:16;13.48;;;2.75;;
63095;SDS011;49184;55.596;37.770;2022-07-29T09:58:47;4.43;;;2.20;;
63095;SDS011;49184;55.596;37.770;2022-07-29T10:05:15;19.60;;;4.80;;
63095;SDS011;49184;55.596;37.770;2022-07-29T10:13:49;8.43;;;2.55;;
63095;SDS011;49184;55.596;37.770;2022-07-29T10:23:39;28.90;;;8.23;;
63095;SDS011;49184;55.596;37.770;2022-07-29T10:26:38;16.33;;;4.65;;
63095;SDS011;49184;55.596;37.770;2022-07-29T10:29:07;9.95;;;3.10;;
63095;SDS011;49184;55.596;37.770;2022-07-29T10:42:17;8.30;;;1.80;;
63095;SDS011;49184;55.596;37.770;2022-07-29T10:48:07;11.00;;;2.00;;
63095;SDS011;49184;55.596;37.770;2022-07-29T10:57:57;8.48;;;2.10;;
63095;SDS011;49184;55.596;37.770;2022-07-29T11:00:55;10.20;;;2.80;;
63095;SDS011;49184;55.596;37.770;2022-07-29T11:07:13;9.52;;;2.05;;
63095;SDS011;49184;55.596;37.770;2022-07-29T11:09:41;8.77;;;2.33;;
63095;SDS011;49184;55.596;37.770;2022-07-29T11:15:11;7.28;;;2.30;;
63095;SDS011;49184;55.596;37.770;2022-07-29T11:21:34;14.93;;;2.45;;
63095;SDS011;49184;55.596;37.770;2022-07-29T11:37:25;26.80;;;3.67;;
63095;SDS011;49184;55.596;37.770;2022-07-29T11:43:06;3.97;;;1.60;;
63095;SDS011;49184;55.596;37.770;2022-07-29T11:45:46;5.63;;;1.67;;
63095;SDS011;49184;55.596;37.770;2022-07-29T11:48:24;9.45;;;2.22;;
63095;SDS011;49184;55.596;37.770;2022-07-29T11:50:52;13.38;;;2.08;;
63095;SDS011;49184;55.596;37.770;2022-07-29T11:53:27;6.75;;;1.90;;
63095;SDS011;49184;55.596;37.770;2022-07-29T11:55:54;4.50;;;1.80;;
63095;SDS011;49184;55.596;37.770;2022-07-29T11:58:21;2.88;;;1.73;;
63095;SDS011;49184;55.596;37.770;2022-07-29T12:00:51;4.53;;;2.15;;
63095;SDS011;49184;55.596;37.770;2022-07-29T12:06:54;5.85;;;1.70;;
63095;SDS011;49184;55.596;37.770;2022-07-29T12:09:51;7.30;;;1.95;;
63095;SDS011;49184;55.596;37.770;2022-07-29T12:15:21;7.22;;;1.70;;
63095;SDS011;49184;55.596;37.770;2022-07-29T12:17:49;7.55;;;2.00;;
63095;SDS011;49184;55.596;37.770;2022-07-29T12:20:26;10.05;;;2.05;;
63095;SDS011;49184;55.596;37.770;2022-07-29T12:22:54;7.35;;;1.75;;
63095;SDS011;49184;55.596;37.770;2022-07-29T12:25:22;8.95;;;2.45;;
63095;SDS011;49184;55.596;37.770;2022-07-29T12:31:13;6.72;;;2.00;;
63095;SDS011;49184;55.596;37.770;2022-07-29T12:33:51;10.57;;;2.03;;
63095;SDS011;49184;55.596;37.770;2022-07-29T12:39:34;6.25;;;2.45;;
63095;SDS011;49184;55.596;37.770;2022-07-29T12:50:22;6.45;;;2.10;;
63095;SDS011;49184;55.596;37.770;2022-07-29T13:23:39;20.67;;;5.93;;
63095;SDS011;49184;55.596;37.770;2022-07-29T13:26:10;11.23;;;2.60;;
63095;SDS011;49184;55.596;37.770;2022-07-29T13:29:09;18.38;;;2.58;;
63095;SDS011;49184;55.596;37.770;2022-07-29T13:31:44;6.95;;;2.35;;
63095;SDS011;49184;55.596;37.770;2022-07-29T13:34:29;10.48;;;2.88;;
63095;SDS011;49184;55.596;37.770;2022-07-29T13:37:27;11.82;;;4.53;;
63095;SDS011;49184;55.596;37.770;2022-07-29T13:39:55;9.85;;;2.80;;
63095;SDS011;49184;55.596;37.770;2022-07-29T13:42:23;5.80;;;2.30;;
63095;SDS011;49184;55.596;37.770;2022-07-29T13:48:38;11.13;;;2.80;;
63095;SDS011;49184;55.596;37.770;2022-07-29T13:51:29;6.10;;;2.17;;
63095;SDS011;49184;55.596;37.770;2022-07-29T13:54:08;8.57;;;2.10;;
63095;SDS011;49184;55.596;37.770;2022-07-29T13:56:35;6.55;;;2.10;;
63095;SDS011;49184;55.596;37.770;2022-07-29T13:59:01;7.20;;;2.35;;
63095;SDS011;49184;55.596;37.770;2022-07-29T14:01:28;5.72;;;2.03;;
63095;SDS011;49184;55.596;37.770;2022-07-29T14:03:55;11.25;;;2.33;;
63095;SDS011;49184;55.596;37.770;2022-07-29T14:11:58;8.68;;;2.30;;
63095;SDS011;49184;55.596;37.770;2022-07-29T14:14:25;7.60;;;3.08;;
63095;SDS011;49184;55.596;37.770;2022-07-29T14:17:23;15.20;;;7.18;;
63095;SDS011;49184;55.596;37.770;2022-07-29T14:19:49;25.27;;;16.42;;
63095;SDS011;49184;55.596;37.770;2022-07-29T14:22:16;18.88;;;11.00;;
63095;SDS011;49184;55.596;37.770;2022-07-29T14:24:45;27.50;;;14.38;;
63095;SDS011;49184;55.596;37.770;2022-07-29T14:27:11;14.27;;;7.65;;
63095;SDS011;49184;55.596;37.770;2022-07-29T14:29:37;12.10;;;5.55;;
63095;SDS011;49184;55.596;37.770;2022-07-29T14:32:07;16.90;;;3.90;;
63095;SDS011;49184;55.596;37.770;2022-07-29T14:41:00;11.48;;;3.03;;
63095;SDS011;49184;55.596;37.770;2022-07-29T14:43:40;13.55;;;3.30;;
63095;SDS011;49184;55.596;37.770;2022-07-29T14:46:07;9.45;;;3.10;;
63095;SDS011;49184;55.596;37.770;2022-07-29T14:48:33;11.73;;;2.70;;
63095;SDS011;49184;55.596;37.770;2022-07-29T14:51:03;9.70;;;3.10;;
63095;SDS011;49184;55.596;37.770;2022-07-29T14:53:31;8.88;;;3.30;;
63095;SDS011;49184;55.596;37.770;2022-07-29T15:02:31;9.88;;;3.60;;
63095;SDS011;49184;55.596;37.770;2022-07-29T15:07:51;7.90;;;3.42;;
63095;SDS011;49184;55.596;37.770;2022-07-29T15:10:17;11.90;;;4.28;;
63095;SDS011;49184;55.596;37.770;2022-07-29T15:12:47;8.35;;;2.80;;
63095;SDS011;49184;55.596;37.770;2022-07-29T15:15:13;6.57;;;2.80;;
63095;SDS011;49184;55.596;37.770;2022-07-29T15:18:00;8.60;;;3.00;;
63095;SDS011;49184;55.596;37.770;2022-07-29T15:20:48;19.85;;;3.00;;
63095;SDS011;49184;55.596;37.770;2022-07-29T15:23:47;10.38;;;2.47;;
63095;SDS011;49184;55.596;37.770;2022-07-29T15:26:14;22.95;;;4.00;;
63095;SDS011;49184;55.596;37.770;2022-07-29T15:28:41;16.48;;;2.53;;
63095;SDS011;49184;55.596;37.770;2022-07-29T15:31:41;11.30;;;2.80;;
63095;SDS011;49184;55.596;37.770;2022-07-29T15:34:41;15.82;;;4.05;;
63095;SDS011;49184;55.596;37.770;2022-07-29T15:37:07;12.13;;;4.28;;
63095;SDS011;49184;55.596;37.770;2022-07-29T15:42:00;14.10;;;2.97;;
63095;SDS011;49184;55.596;37.770;2022-07-29T15:44:26;16.33;;;3.10;;
63095;SDS011;49184;55.596;37.770;2022-07-29T15:46:55;32.85;;;4.20;;
63095;SDS011;49184;55.596;37.770;2022-07-29T15:49:38;16.10;;;3.95;;
63095;SDS011;49184;55.596;37.770;2022-07-29T15:52:20;13.82;;;6.25;;
63095;SDS011;49184;55.596;37.770;2022-07-29T15:54:50;11.02;;;5.55;;
63095;SDS011;49184;55.596;37.770;2022-07-29T15:57:16;13.00;;;5.35;;
63095;SDS011;49184;55.596;37.770;2022-07-29T15:59:46;15.25;;;3.78;;
63095;SDS011;49184;55.596;37.770;2022-07-29T16:02:12;14.10;;;5.18;;
63095;SDS011;49184;55.596;37.770;2022-07-29T16:04:50;15.13;;;3.10;;
63095;SDS011;49184;55.596;37.770;2022-07-29T16:10:11;16.40;;;4.93;;
63095;SDS011;49184;55.596;37.770;2022-07-29T16:12:39;12.82;;;4.55;;
63095;SDS011;49184;55.596;37.770;2022-07-29T16:15:06;15.15;;;4.22;;
63095;SDS011;49184;55.596;37.770;2022-07-29T16:17:34;18.90;;;4.00;;
63095;SDS011;49184;55.596;37.770;2022-07-29T16:22:56;10.77;;;3.40;;
63095;SDS011;49184;55.596;37.770;2022-07-29T16:25:57;11.15;;;3.13;;
63095;SDS011;49184;55.596;37.770;2022-07-29T16:28:43;7.57;;;2.80;;
63095;SDS011;49184;55.596;37.770;2022-07-29T16:31:13;9.98;;;2.40;;
63095;SDS011;49184;55.596;37.770;2022-07-29T16:33:44;10.60;;;2.75;;
63095;SDS011;49184;55.596;37.770;2022-07-29T16:36:38;9.43;;;2.60;;
63095;SDS011;49184;55.596;37.770;2022-07-29T16:39:33;16.25;;;2.78;;
63095;SDS011;49184;55.596;37.770;2022-07-29T16:42:07;21.15;;;3.47;;
63095;SDS011;49184;55.596;37.770;2022-07-29T16:45:03;26.50;;;3.47;;
63095;SDS011;49184;55.596;37.770;2022-07-29T16:47:34;20.25;;;3.00;;
63095;SDS011;49184;55.596;37.770;2022-07-29T16:50:01;13.00;;;3.08;;
63095;SDS011;49184;55.596;37.770;2022-07-29T16:53:00;15.30;;;3.90;;
63095;SDS011;49184;55.596;37.770;2022-07-29T17:38:24;6.85;;;2.17;;
63095;SDS011;49184;55.596;37.770;2022-07-29T17:40:50;11.07;;;2.30;;
63095;SDS011;49184;55.596;37.770;2022-07-29T17:43:16;14.10;;;2.78;;
63095;SDS011;49184;55.596;37.770;2022-07-29T17:46:12;6.93;;;2.25;;
63095;SDS011;49184;55.596;37.770;2022-07-29T17:48:38;14.13;;;2.90;;
63095;SDS011;49184;55.596;37.770;2022-07-29T17:51:04;11.15;;;3.90;;
63095;SDS011;49184;55.596;37.770;2022-07-29T17:53:30;20.10;;;4.97;;
63095;SDS011;49184;55.596;37.770;2022-07-29T17:58:49;17.65;;;8.32;;
63095;SDS011;49184;55.596;37.770;2022-07-29T18:01:16;14.40;;;6.40;;
63095;SDS011;49184;55.596;37.770;2022-07-29T18:03:44;12.30;;;4.50;;
63095;SDS011;49184;55.596;37.770;2022-07-29T18:06:11;9.98;;;4.10;;
63095;SDS011;49184;55.596;37.770;2022-07-29T18:08:43;14.85;;;3.60;;
63095;SDS011;49184;55.596;37.770;2022-07-29T18:11:12;7.85;;;3.10;;
63095;SDS011;49184;55.596;37.770;2022-07-29T18:13:40;15.05;;;3.20;;
63095;SDS011;49184;55.596;37.770;2022-07-29T18:16:06;12.20;;;3.38;;
63095;SDS011;49184;55.596;37.770;2022-07-29T18:18:36;33.08;;;4.45;;
63095;SDS011;49184;55.596;37.770;2022-07-29T18:21:02;10.57;;;4.22;;
63095;SDS011;49184;55.596;37.770;2022-07-29T18:25:56;9.23;;;3.20;;
63095;SDS011;49184;55.596;37.770;2022-07-29T18:28:22;8.85;;;2.67;;
63095;SDS011;49184;55.596;37.770;2022-07-29T18:30:49;9.93;;;2.75;;
63095;SDS011;49184;55.596;37.770;2022-07-29T18:33:19;10.35;;;2.60;;
63095;SDS011;49184;55.596;37.770;2022-07-29T18:35:46;10.98;;;2.20;;
63095;SDS011;49184;55.596;37.770;2022-07-29T18:38:14;9.43;;;2.95;;
63095;SDS011;49184;55.596;37.770;2022-07-29T18:40:41;9.10;;;2.40;;
63095;SDS011;49184;55.596;37.770;2022-07-29T18:43:13;13.77;;;2.22;;
63095;SDS011;49184;55.596;37.770;2022-07-29T18:45:39;7.45;;;2.33;;
63095;SDS011;49184;55.596;37.770;2022-07-29T18:50:45;7.18;;;1.83;;
63095;SDS011;49184;55.596;37.770;2022-07-29T18:53:19;8.32;;;2.40;;
63095;SDS011;49184;55.596;37.770;2022-07-29T18:59:17;9.15;;;1.90;;
63095;SDS011;49184;55.596;37.770;2022-07-29T19:01:52;3.47;;;1.50;;
63095;SDS011;49184;55.596;37.770;2022-07-29T19:04:22;8.05;;;1.80;;
63095;SDS011;49184;55.596;37.770;2022-07-29T19:06:48;6.00;;;1.90;;
63095;SDS011;49184;55.596;37.770;2022-07-29T19:11:58;7.28;;;1.55;;
63095;SDS011;49184;55.596;37.770;2022-07-29T19:14:24;4.90;;;1.92;;
63095;SDS011;49184;55.596;37.770;2022-07-29T19:16:52;8.70;;;2.38;;
63095;SDS011;49184;55.596;37.770;2022-07-29T19:19:21;6.13;;;1.83;;
63095;SDS011;49184;55.596;37.770;2022-07-29T19:21:48;7.85;;;2.33;;
63095;SDS011;49184;55.596;37.770;2022-07-29T19:24:18;6.82;;;2.20;;
63095;SDS011;49184;55.596;37.770;2022-07-29T19:26:45;10.02;;;2.20;;
63095;SDS011;49184;55.596;37.770;2022-07-29T19:29:16;4.88;;;2.00;;
63095;SDS011;49184;55.596;37.770;2022-07-29T19:31:53;6.70;;;2.10;;
63095;SDS011;49184;55.596;37.770;2022-07-29T19:34:20;5.90;;;1.80;;
63095;SDS011;49184;55.596;37.770;2022-07-29T19:36:58;3.90;;;1.58;;
63095;SDS011;49184;55.596;37.770;2022-07-29T19:39:26;7.30;;;2.00;;
63095;SDS011;49184;55.596;37.770;2022-07-29T19:41:52;9.57;;;2.10;;
63095;SDS011;49184;55.596;37.770;2022-07-29T19:44:21;8.30;;;2.40;;
63095;SDS011;49184;55.596;37.770;2022-07-29T19:46:48;4.68;;;2.15;;
63095;SDS011;49184;55.596;37.770;2022-07-29T19:49:15;6.47;;;2.17;;
63095;SDS011;49184;55.596;37.770;2022-07-29T19:51:46;7.47;;;2.10;;
63095;SDS011;49184;55.596;37.770;2022-07-29T19:54:25;8.98;;;2.25;;
63095;SDS011;49184;55.596;37.770;2022-07-29T19:56:53;7.57;;;2.13;;
63095;SDS011;49184;55.596;37.770;2022-07-29T23:58:33;10.90;;;2.20;;
